sensor_id;sensor_type;location;lat;lon;timestamp;pressure;altitude;pressure_sealevel;temperature;humidity
27334;BME280;14817;57.104;-2.094;2023-04-01T00:01:27;99601.34;;;4.52;100.00
27334;BME280;14817;57.104;-2.094;2023-04-01T00:03:53;99605.53;;;4.54;100.00
27334;BME280;14817;57.104;-2.094;2023-04-01T00:06:21;99602.88;;;4.54;100.00
27334;BME280;14817;57.104;-2.094;2023-04-01T00:08:48;99605.41;;;4.56;100.00
27334;BME280;14817;57.104;-2.094;2023-04-01T00:11:15;99602.34;;;4.60;100.00
27334;BME280;14817;57.104;-2.094;2023-04-01T00:13:43;99610.28;;;4.60;100.00
27334;BME280;14817;57.104;-2.094;2023-04-01T00:16:09;99608.22;;;4.64;100.00
27334;BME280;14817;57.104;-2.094;2023-04-01T00:18:48;99607.22;;;4.65;100.00
27334;BME280;14817;57.104;-2.094;2023-04-01T00:21:15;99612.97;;;4.70;100.00
27334;BME280;14817;57.104;-2.094;2023-04-01T00:23:42;99614.81;;;4.69;100.00
27334;BME280;14817;57.104;-2.094;2023-04-01T00:26:10;99609.88;;;4.65;100.00
27334;BME280;14817;57.104;-2.094;2023-04-01T00:28:39;99620.94;;;4.70;100.00
27334;BME280;14817;57.104;-2.094;2023-04-01T00:31:07;99614.81;;;4.69;100.00
27334;BME280;14817;57.104;-2.094;2023-04-01T00:33:35;99619.53;;;4.66;100.00
27334;BME280;14817;57.104;-2.094;2023-04-01T00:36:14;99623.47;;;4.72;100.00
27334;BME280;14817;57.104;-2.094;2023-04-01T00:38:42;99622.19;;;4.76;100.00
27334;BME280;14817;57.104;-2.094;2023-04-01T00:41:10;99630.41;;;4.73;100.00
27334;BME280;14817;57.104;-2.094;2023-04-01T00:43:42;99615.63;;;4.70;100.00
27334;BME280;14817;57.104;-2.094;2023-04-01T00:46:09;99620.50;;;4.75;100.00
27334;BME280;14817;57.104;-2.094;2023-04-01T00:48:38;99628.47;;;4.75;100.00
27334;BME280;14817;57.104;-2.094;2023-04-01T00:51:10;99618.81;;;4.74;100.00
27334;BME280;14817;57.104;-2.094;2023-04-01T00:53:41;99629.84;;;4.69;100.00
27334;BME280;14817;57.104;-2.094;2023-04-01T00:56:13;99629.84;;;4.59;100.00
27334;BME280;14817;57.104;-2.094;2023-04-01T00:58:45;99634.06;;;4.72;100.00
27334;BME280;14817;57.104;-2.094;2023-04-01T01:01:13;99635.84;;;4.61;100.00
27334;BME280;14817;57.104;-2.094;2023-04-01T01:03:40;99629.56;;;4.62;100.00
27334;BME280;14817;57.104;-2.094;2023-04-01T01:09:18;99642.56;;;4.65;100.00
27334;BME280;14817;57.104;-2.094;2023-04-01T01:23:28;99649.44;;;4.37;100.00
27334;BME280;14817;57.104;-2.094;2023-04-01T01:34:31;99669.56;;;4.40;100.00
27334;BME280;14817;57.104;-2.094;2023-04-01T01:37:06;99659.91;;;4.39;100.00
27334;BME280;14817;57.104;-2.094;2023-04-01T01:39:37;99665.50;;;4.45;100.00
27334;BME280;14817;57.104;-2.094;2023-04-01T01:42:06;99662.31;;;4.52;100.00
27334;BME280;14817;57.104;-2.094;2023-04-01T01:44:35;99672.50;;;4.46;100.00
27334;BME280;14817;57.104;-2.094;2023-04-01T01:47:03;99676.69;;;4.49;100.00
27334;BME280;14817;57.104;-2.094;2023-04-01T01:49:32;99677.06;;;4.35;100.00
27334;BME280;14817;57.104;-2.094;2023-04-01T01:52:00;99672.75;;;4.34;100.00
27334;BME280;14817;57.104;-2.094;2023-04-01T01:54:26;99688.50;;;4.35;100.00
27334;BME280;14817;57.104;-2.094;2023-04-01T01:57:04;99685.00;;;4.35;100.00
27334;BME280;14817;57.104;-2.094;2023-04-01T01:59:36;99677.88;;;4.35;100.00
27334;BME280;14817;57.104;-2.094;2023-04-01T02:02:06;99683.34;;;4.34;100.00
27334;BME280;14817;57.104;-2.094;2023-04-01T02:04:37;99684.31;;;4.33;100.00
27334;BME280;14817;57.104;-2.094;2023-04-01T02:07:10;99693.38;;;4.30;100.00
27334;BME280;14817;57.104;-2.094;2023-04-01T02:09:39;99697.72;;;4.31;100.00
27334;BME280;14817;57.104;-2.094;2023-04-01T02:12:09;99692.78;;;4.26;100.00
27334;BME280;14817;57.104;-2.094;2023-04-01T02:14:44;99695.00;;;4.21;100.00
27334;BME280;14817;57.104;-2.094;2023-04-01T02:17:17;99699.06;;;4.25;100.00
27334;BME280;14817;57.104;-2.094;2023-04-01T02:19:49;99707.72;;;4.27;100.00
27334;BME280;14817;57.104;-2.094;2023-04-01T02:22:21;99705.06;;;4.27;100.00
27334;BME280;14817;57.104;-2.094;2023-04-01T02:24:49;99703.38;;;4.26;100.00
27334;BME280;14817;57.104;-2.094;2023-04-01T02:27:17;99705.88;;;4.18;100.00
27334;BME280;14817;57.104;-2.094;2023-04-01T02:29:44;99715.38;;;4.21;100.00
27334;BME280;14817;57.104;-2.094;2023-04-01T02:32:13;99717.88;;;4.22;100.00
27334;BME280;14817;57.104;-2.094;2023-04-01T02:34:41;99717.63;;;4.25;100.00
27334;BME280;14817;57.104;-2.094;2023-04-01T02:37:10;99707.59;;;4.29;100.00
27334;BME280;14817;57.104;-2.094;2023-04-01T02:39:37;99723.31;;;4.21;100.00
27334;BME280;14817;57.104;-2.094;2023-04-01T02:42:05;99727.06;;;4.18;100.00
27334;BME280;14817;57.104;-2.094;2023-04-01T02:44:31;99726.28;;;4.27;100.00
27334;BME280;14817;57.104;-2.094;2023-04-01T02:46:58;99736.75;;;4.29;100.00
27334;BME280;14817;57.104;-2.094;2023-04-01T02:49:25;99726.00;;;4.30;100.00
27334;BME280;14817;57.104;-2.094;2023-04-01T02:51:52;99734.00;;;4.40;100.00
27334;BME280;14817;57.104;-2.094;2023-04-01T02:54:19;99748.44;;;4.26;100.00
27334;BME280;14817;57.104;-2.094;2023-04-01T02:56:46;99734.75;;;4.21;100.00
27334;BME280;14817;57.104;-2.094;2023-04-01T02:59:14;99739.94;;;4.23;100.00
27334;BME280;14817;57.104;-2.094;2023-04-01T03:01:41;99737.72;;;4.28;100.00
27334;BME280;14817;57.104;-2.094;2023-04-01T03:04:07;99737.13;;;4.24;100.00
27334;BME280;14817;57.104;-2.094;2023-04-01T03:06:34;99741.19;;;4.28;100.00
27334;BME280;14817;57.104;-2.094;2023-04-01T03:09:01;99744.00;;;4.27;100.00
27334;BME280;14817;57.104;-2.094;2023-04-01T03:11:28;99749.16;;;4.28;100.00
27334;BME280;14817;57.104;-2.094;2023-04-01T03:13:56;99750.31;;;4.36;100.00
27334;BME280;14817;57.104;-2.094;2023-04-01T03:16:22;99749.78;;;4.42;100.00
27334;BME280;14817;57.104;-2.094;2023-04-01T03:18:50;99750.31;;;4.36;100.00
27334;BME280;14817;57.104;-2.094;2023-04-01T03:21:23;99757.03;;;4.40;100.00
27334;BME280;14817;57.104;-2.094;2023-04-01T03:23:50;99756.31;;;4.38;100.00
27334;BME280;14817;57.104;-2.094;2023-04-01T03:26:17;99757.03;;;4.40;100.00
27334;BME280;14817;57.104;-2.094;2023-04-01T03:28:44;99762.06;;;4.43;100.00
27334;BME280;14817;57.104;-2.094;2023-04-01T03:31:12;99765.69;;;4.42;100.00
27334;BME280;14817;57.104;-2.094;2023-04-01T03:33:46;99771.00;;;4.42;100.00
27334;BME280;14817;57.104;-2.094;2023-04-01T03:36:13;99763.47;;;4.47;100.00
27334;BME280;14817;57.104;-2.094;2023-04-01T03:38:41;99768.19;;;4.43;100.00
27334;BME280;14817;57.104;-2.094;2023-04-01T03:41:12;99775.75;;;4.48;100.00
27334;BME280;14817;57.104;-2.094;2023-04-01T03:43:40;99778.88;;;4.53;100.00
27334;BME280;14817;57.104;-2.094;2023-04-01T03:46:07;99777.16;;;4.52;100.00
27334;BME280;14817;57.104;-2.094;2023-04-01T03:48:34;99776.22;;;4.53;100.00
27334;BME280;14817;57.104;-2.094;2023-04-01T03:51:01;99778.47;;;4.58;100.00
27334;BME280;14817;57.104;-2.094;2023-04-01T03:53:29;99783.75;;;4.58;100.00
27334;BME280;14817;57.104;-2.094;2023-04-01T03:56:03;99779.06;;;4.61;100.00
27334;BME280;14817;57.104;-2.094;2023-04-01T03:58:31;99790.63;;;4.60;100.00
27334;BME280;14817;57.104;-2.094;2023-04-01T04:01:00;99789.06;;;4.58;100.00
27334;BME280;14817;57.104;-2.094;2023-04-01T04:03:28;99783.75;;;4.58;100.00
27334;BME280;14817;57.104;-2.094;2023-04-01T04:05:55;99798.03;;;4.66;100.00
27334;BME280;14817;57.104;-2.094;2023-04-01T04:08:22;99795.00;;;4.71;100.00
27334;BME280;14817;57.104;-2.094;2023-04-01T04:10:56;99798.31;;;4.63;100.00
27334;BME280;14817;57.104;-2.094;2023-04-01T04:13:23;99802.63;;;4.64;100.00
27334;BME280;14817;57.104;-2.094;2023-04-01T04:15:58;99801.50;;;4.57;100.00
27334;BME280;14817;57.104;-2.094;2023-04-01T04:18:28;99804.34;;;4.65;100.00
27334;BME280;14817;57.104;-2.094;2023-04-01T04:20:55;99803.47;;;4.65;100.00
27334;BME280;14817;57.104;-2.094;2023-04-01T04:23:23;99806.28;;;4.63;100.00
27334;BME280;14817;57.104;-2.094;2023-04-01T04:25:55;99810.41;;;4.56;100.00
27334;BME280;14817;57.104;-2.094;2023-04-01T04:28:24;99817.84;;;4.62;100.00
27334;BME280;14817;57.104;-2.094;2023-04-01T04:30:53;99821.47;;;4.61;100.00
27334;BME280;14817;57.104;-2.094;2023-04-01T04:33:21;99823.72;;;4.66;100.00
27334;BME280;14817;57.104;-2.094;2023-04-01T04:35:49;99832.34;;;4.58;100.00
27334;BME280;14817;57.104;-2.094;2023-04-01T04:38:17;99831.09;;;4.62;100.00
27334;BME280;14817;57.104;-2.094;2023-04-01T04:40:44;99827.34;;;4.65;100.00
27334;BME280;14817;57.104;-2.094;2023-04-01T04:43:12;99834.75;;;4.61;100.00
27334;BME280;14817;57.104;-2.094;2023-04-01T04:45:40;99845.34;;;4.61;100.00
27334;BME280;14817;57.104;-2.094;2023-04-01T04:48:09;99837.50;;;4.60;100.00
27334;BME280;14817;57.104;-2.094;2023-04-01T04:50:40;99844.25;;;4.64;100.00
27334;BME280;14817;57.104;-2.094;2023-04-01T04:53:09;99845.59;;;4.58;100.00
27334;BME280;14817;57.104;-2.094;2023-04-01T04:55:36;99859.44;;;4.62;100.00
27334;BME280;14817;57.104;-2.094;2023-04-01T04:58:39;99868.91;;;4.55;100.00
27334;BME280;14817;57.104;-2.094;2023-04-01T05:01:14;99858.13;;;4.56;100.00
27334;BME280;14817;57.104;-2.094;2023-04-01T05:03:42;99863.63;;;4.64;100.00
27334;BME280;14817;57.104;-2.094;2023-04-01T05:06:11;99862.38;;;4.59;100.00
27334;BME280;14817;57.104;-2.094;2023-04-01T05:08:38;99869.06;;;4.63;100.00
27334;BME280;14817;57.104;-2.094;2023-04-01T05:11:10;99874.50;;;4.61;100.00
27334;BME280;14817;57.104;-2.094;2023-04-01T05:13:42;99870.75;;;4.64;100.00
27334;BME280;14817;57.104;-2.094;2023-04-01T05:16:13;99868.50;;;4.59;100.00
27334;BME280;14817;57.104;-2.094;2023-04-01T05:18:41;99873.28;;;4.65;100.00
27334;BME280;14817;57.104;-2.094;2023-04-01T05:21:10;99871.59;;;4.64;100.00
27334;BME280;14817;57.104;-2.094;2023-04-01T05:23:37;99876.69;;;4.56;100.00
27334;BME280;14817;57.104;-2.094;2023-04-01T05:26:05;99887.50;;;4.64;100.00
27334;BME280;14817;57.104;-2.094;2023-04-01T05:28:33;99895.25;;;4.56;100.00
27334;BME280;14817;57.104;-2.094;2023-04-01T05:31:01;99895.41;;;4.55;100.00
27334;BME280;14817;57.104;-2.094;2023-04-01T05:33:37;99892.38;;;4.59;100.00
27334;BME280;14817;57.104;-2.094;2023-04-01T05:36:14;99896.69;;;4.60;100.00
27334;BME280;14817;57.104;-2.094;2023-04-01T05:38:42;99903.69;;;4.61;100.00
27334;BME280;14817;57.104;-2.094;2023-04-01T05:41:11;99900.63;;;4.66;100.00
27334;BME280;14817;57.104;-2.094;2023-04-01T05:43:42;99905.66;;;4.69;100.00
27334;BME280;14817;57.104;-2.094;2023-04-01T05:46:48;99909.44;;;4.66;100.00
27334;BME280;14817;57.104;-2.094;2023-04-01T05:49:25;99906.78;;;4.66;100.00
27334;BME280;14817;57.104;-2.094;2023-04-01T05:51:55;99920.03;;;4.66;100.00
27334;BME280;14817;57.104;-2.094;2023-04-01T05:54:22;99917.38;;;4.66;100.00
27334;BME280;14817;57.104;-2.094;2023-04-01T05:56:49;99914.72;;;4.66;100.00
27334;BME280;14817;57.104;-2.094;2023-04-01T05:59:16;99918.41;;;4.54;100.00
27334;BME280;14817;57.104;-2.094;2023-04-01T06:01:43;99926.19;;;4.67;100.00
27334;BME280;14817;57.104;-2.094;2023-04-01T06:04:14;99930.53;;;4.68;100.00
27334;BME280;14817;57.104;-2.094;2023-04-01T06:06:42;99934.13;;;4.67;100.00
27334;BME280;14817;57.104;-2.094;2023-04-01T06:09:27;99932.06;;;4.70;100.00
27334;BME280;14817;57.104;-2.094;2023-04-01T06:23:35;99954.84;;;4.73;100.00
27334;BME280;14817;57.104;-2.094;2023-04-01T06:29:17;99958.09;;;4.77;100.00
27334;BME280;14817;57.104;-2.094;2023-04-01T06:37:50;99965.53;;;4.83;100.00
27334;BME280;14817;57.104;-2.094;2023-04-01T06:46:52;99980.22;;;4.87;100.00
27334;BME280;14817;57.104;-2.094;2023-04-01T06:49:48;99977.56;;;4.87;100.00
27334;BME280;14817;57.104;-2.094;2023-04-01T06:55:53;99980.66;;;4.92;100.00
27334;BME280;14817;57.104;-2.094;2023-04-01T06:58:57;99984.47;;;4.99;100.00
27334;BME280;14817;57.104;-2.094;2023-04-01T07:01:38;99994.66;;;4.94;100.00
27334;BME280;14817;57.104;-2.094;2023-04-01T07:04:14;99995.09;;;4.99;100.00
27334;BME280;14817;57.104;-2.094;2023-04-01T07:06:50;99995.69;;;5.03;100.00
27334;BME280;14817;57.104;-2.094;2023-04-01T07:09:48;99994.84;;;5.02;100.00
27334;BME280;14817;57.104;-2.094;2023-04-01T07:12:43;100010.31;;;4.97;100.00
27334;BME280;14817;57.104;-2.094;2023-04-01T07:15:28;100007.84;;;5.05;100.00
27334;BME280;14817;57.104;-2.094;2023-04-01T07:18:05;100017.75;;;5.03;100.00
27334;BME280;14817;57.104;-2.094;2023-04-01T07:20:36;100017.50;;;5.06;100.00
27334;BME280;14817;57.104;-2.094;2023-04-01T07:23:08;100030.78;;;5.06;100.00
27334;BME280;14817;57.104;-2.094;2023-04-01T07:25:55;100037.50;;;5.10;100.00
27334;BME280;14817;57.104;-2.094;2023-04-01T07:28:31;100031.69;;;5.17;100.00
27334;BME280;14817;57.104;-2.094;2023-04-01T07:50:28;100068.06;;;5.26;100.00
27334;BME280;14817;57.104;-2.094;2023-04-01T08:09:50;100100.56;;;5.39;100.00
27334;BME280;14817;57.104;-2.094;2023-04-01T08:16:12;100098.53;;;5.52;100.00
27334;BME280;14817;57.104;-2.094;2023-04-01T08:19:04;100110.22;;;5.40;100.00
27334;BME280;14817;57.104;-2.094;2023-04-01T08:21:47;100115.75;;;5.48;100.00
27334;BME280;14817;57.104;-2.094;2023-04-01T08:24:25;100116.38;;;5.41;100.00
27334;BME280;14817;57.104;-2.094;2023-04-01T08:32:39;100127.94;;;5.40;100.00
27334;BME280;14817;57.104;-2.094;2023-04-01T08:35:20;100131.59;;;5.39;100.00
27334;BME280;14817;57.104;-2.094;2023-04-01T08:37:53;100150.97;;;5.50;100.00
27334;BME280;14817;57.104;-2.094;2023-04-01T08:40:50;100143.69;;;5.52;100.00
27334;BME280;14817;57.104;-2.094;2023-04-01T08:52:03;100158.09;;;5.50;100.00
27334;BME280;14817;57.104;-2.094;2023-04-01T09:01:42;100179.72;;;5.45;100.00
27334;BME280;14817;57.104;-2.094;2023-04-01T09:12:54;100195.31;;;5.39;100.00
27334;BME280;14817;57.104;-2.094;2023-04-01T09:21:27;100198.88;;;5.28;100.00
27334;BME280;14817;57.104;-2.094;2023-04-01T09:35:24;100232.00;;;5.45;100.00
27334;BME280;14817;57.104;-2.094;2023-04-01T09:43:57;100235.16;;;5.39;100.00
27334;BME280;14817;57.104;-2.094;2023-04-01T10:28:37;100302.72;;;5.46;100.00
27334;BME280;14817;57.104;-2.094;2023-04-01T10:36:52;100316.56;;;5.61;100.00
27334;BME280;14817;57.104;-2.094;2023-04-01T10:54:49;100348.31;;;5.62;100.00
27334;BME280;14817;57.104;-2.094;2023-04-01T11:30:49;100412.44;;;5.69;100.00
27334;BME280;14817;57.104;-2.094;2023-04-01T11:41:47;100427.13;;;5.84;100.00
27334;BME280;14817;57.104;-2.094;2023-04-01T11:44:42;100430.38;;;5.88;100.00
27334;BME280;14817;57.104;-2.094;2023-04-01T11:47:38;100434.50;;;5.92;100.00
27334;BME280;14817;57.104;-2.094;2023-04-01T11:53:02;100438.69;;;6.17;100.00
27334;BME280;14817;57.104;-2.094;2023-04-01T12:10:20;100467.38;;;6.02;100.00
27334;BME280;14817;57.104;-2.094;2023-04-01T12:15:44;100481.94;;;6.19;100.00
27334;BME280;14817;57.104;-2.094;2023-04-01T12:24:38;100483.06;;;6.17;100.00
27334;BME280;14817;57.104;-2.094;2023-04-01T12:35:47;100500.94;;;6.15;100.00
27334;BME280;14817;57.104;-2.094;2023-04-01T12:38:13;100503.72;;;6.13;100.00
27334;BME280;14817;57.104;-2.094;2023-04-01T12:44:08;100503.75;;;6.02;100.00
27334;BME280;14817;57.104;-2.094;2023-04-01T12:47:00;100521.75;;;5.98;100.00
27334;BME280;14817;57.104;-2.094;2023-04-01T12:52:52;100525.56;;;5.94;100.00
27334;BME280;14817;57.104;-2.094;2023-04-01T12:55:43;100528.38;;;5.81;100.00
27334;BME280;14817;57.104;-2.094;2023-04-01T13:03:56;100547.06;;;5.91;100.00
27334;BME280;14817;57.104;-2.094;2023-04-01T13:15:29;100546.75;;;6.07;100.00
27334;BME280;14817;57.104;-2.094;2023-04-01T13:23:59;100566.06;;;6.09;100.00
27334;BME280;14817;57.104;-2.094;2023-04-01T13:29:41;100566.44;;;6.16;100.00
27334;BME280;14817;57.104;-2.094;2023-04-01T13:32:22;100574.16;;;6.30;100.00
27334;BME280;14817;57.104;-2.094;2023-04-01T13:40:38;100580.72;;;6.15;100.00
27334;BME280;14817;57.104;-2.094;2023-04-01T13:57:22;100597.34;;;6.39;100.00
27334;BME280;14817;57.104;-2.094;2023-04-01T14:02:38;100613.28;;;6.50;100.00
27334;BME280;14817;57.104;-2.094;2023-04-01T14:08:09;100616.03;;;6.60;100.00
27334;BME280;14817;57.104;-2.094;2023-04-01T14:10:43;100617.84;;;6.71;100.00
27334;BME280;14817;57.104;-2.094;2023-04-01T14:16:20;100620.53;;;6.60;100.00
27334;BME280;14817;57.104;-2.094;2023-04-01T14:33:48;100651.34;;;6.73;100.00
27334;BME280;14817;57.104;-2.094;2023-04-01T14:36:53;100666.38;;;6.52;100.00
27334;BME280;14817;57.104;-2.094;2023-04-01T14:39:33;100662.72;;;6.64;100.00
27334;BME280;14817;57.104;-2.094;2023-04-01T14:45:06;100670.59;;;6.43;100.00
27334;BME280;14817;57.104;-2.094;2023-04-01T14:50:28;100676.06;;;6.53;100.00
27334;BME280;14817;57.104;-2.094;2023-04-01T14:58:11;100677.34;;;6.70;100.00
27334;BME280;14817;57.104;-2.094;2023-04-01T15:14:46;100705.44;;;6.40;100.00
27334;BME280;14817;57.104;-2.094;2023-04-01T15:20:21;100715.47;;;6.48;100.00
27334;BME280;14817;57.104;-2.094;2023-04-01T15:23:11;100710.84;;;6.61;100.00
27334;BME280;14817;57.104;-2.094;2023-04-01T15:26:13;100712.31;;;6.65;100.00
27334;BME280;14817;57.104;-2.094;2023-04-01T15:31:54;100719.44;;;6.76;100.00
27334;BME280;14817;57.104;-2.094;2023-04-01T15:37:02;100728.53;;;6.62;100.00
27334;BME280;14817;57.104;-2.094;2023-04-01T15:40:00;100733.00;;;6.50;100.00
27334;BME280;14817;57.104;-2.094;2023-04-01T15:42:39;100739.41;;;6.59;100.00
27334;BME280;14817;57.104;-2.094;2023-04-01T15:55:59;100760.22;;;6.77;100.00
27334;BME280;14817;57.104;-2.094;2023-04-01T15:58:55;100760.72;;;6.70;100.00
27334;BME280;14817;57.104;-2.094;2023-04-01T16:01:29;100758.03;;;6.82;100.00
27334;BME280;14817;57.104;-2.094;2023-04-01T16:07:15;100765.41;;;6.78;100.00
27334;BME280;14817;57.104;-2.094;2023-04-01T16:12:58;100781.13;;;6.59;100.00
27334;BME280;14817;57.104;-2.094;2023-04-01T16:18:38;100790.56;;;6.63;100.00
27334;BME280;14817;57.104;-2.094;2023-04-01T16:23:58;100794.34;;;6.60;100.00
27334;BME280;14817;57.104;-2.094;2023-04-01T16:26:42;100801.84;;;6.55;100.00
27334;BME280;14817;57.104;-2.094;2023-04-01T16:31:59;100808.59;;;6.48;100.00
27334;BME280;14817;57.104;-2.094;2023-04-01T16:34:34;100808.47;;;6.61;100.00
27334;BME280;14817;57.104;-2.094;2023-04-01T16:37:17;100799.28;;;6.65;100.00
27334;BME280;14817;57.104;-2.094;2023-04-01T16:39:59;100806.75;;;6.48;100.00
27334;BME280;14817;57.104;-2.094;2023-04-01T16:42:40;100815.94;;;6.33;100.00
27334;BME280;14817;57.104;-2.094;2023-04-01T16:48:10;100827.56;;;6.54;100.00
27334;BME280;14817;57.104;-2.094;2023-04-01T16:51:00;100829.59;;;6.40;100.00
27334;BME280;14817;57.104;-2.094;2023-04-01T16:53:49;100831.59;;;6.49;100.00
27334;BME280;14817;57.104;-2.094;2023-04-01T16:56:22;100841.13;;;6.40;100.00
27334;BME280;14817;57.104;-2.094;2023-04-01T17:01:30;100851.50;;;6.43;100.00
27334;BME280;14817;57.104;-2.094;2023-04-01T17:04:14;100853.41;;;6.30;100.00
27334;BME280;14817;57.104;-2.094;2023-04-01T17:07:02;100859.00;;;6.38;100.00
27334;BME280;14817;57.104;-2.094;2023-04-01T17:12:49;100868.00;;;6.13;100.00
27334;BME280;14817;57.104;-2.094;2023-04-01T17:23:51;100880.53;;;6.11;100.00
27334;BME280;14817;57.104;-2.094;2023-04-01T17:31:46;100892.34;;;5.96;100.00
27334;BME280;14817;57.104;-2.094;2023-04-01T17:46:11;100919.41;;;6.01;100.00
27334;BME280;14817;57.104;-2.094;2023-04-01T17:49:00;100917.03;;;6.09;100.00
27334;BME280;14817;57.104;-2.094;2023-04-01T17:51:48;100931.34;;;6.19;100.00
27334;BME280;14817;57.104;-2.094;2023-04-01T17:54:47;100935.09;;;6.17;100.00
27334;BME280;14817;57.104;-2.094;2023-04-01T17:57:28;100936.94;;;6.03;100.00
27334;BME280;14817;57.104;-2.094;2023-04-01T18:20:18;100985.00;;;6.13;100.00
27334;BME280;14817;57.104;-2.094;2023-04-01T18:23:11;100991.03;;;6.15;100.00
27334;BME280;14817;57.104;-2.094;2023-04-01T18:25:41;100983.28;;;6.12;100.00
27334;BME280;14817;57.104;-2.094;2023-04-01T18:28:25;100987.34;;;6.05;100.00
27334;BME280;14817;57.104;-2.094;2023-04-01T18:31:06;100994.88;;;6.11;100.00
27334;BME280;14817;57.104;-2.094;2023-04-01T18:36:44;101008.63;;;5.92;100.00
27334;BME280;14817;57.104;-2.094;2023-04-01T18:39:17;101005.31;;;6.01;100.00
27334;BME280;14817;57.104;-2.094;2023-04-01T18:44:53;101013.31;;;5.88;100.00
27334;BME280;14817;57.104;-2.094;2023-04-01T18:47:43;101024.59;;;5.79;100.00
27334;BME280;14817;57.104;-2.094;2023-04-01T18:50:30;101028.75;;;5.83;100.00
27334;BME280;14817;57.104;-2.094;2023-04-01T18:55:47;101033.81;;;5.86;100.00
27334;BME280;14817;57.104;-2.094;2023-04-01T18:58:24;101038.13;;;5.76;100.00
27334;BME280;14817;57.104;-2.094;2023-04-01T19:06:30;101050.44;;;5.77;100.00
27334;BME280;14817;57.104;-2.094;2023-04-01T19:09:15;101047.69;;;5.79;100.00
27334;BME280;14817;57.104;-2.094;2023-04-01T19:22:36;101073.72;;;5.73;100.00
27334;BME280;14817;57.104;-2.094;2023-04-01T19:28:07;101088.63;;;5.76;100.00
27334;BME280;14817;57.104;-2.094;2023-04-01T19:31:33;101093.28;;;5.85;100.00
27334;BME280;14817;57.104;-2.094;2023-04-01T19:50:04;101132.31;;;5.72;100.00
27334;BME280;14817;57.104;-2.094;2023-04-01T19:52:39;101129.00;;;5.68;100.00
27334;BME280;14817;57.104;-2.094;2023-04-01T20:00:29;101134.00;;;5.73;100.00
27334;BME280;14817;57.104;-2.094;2023-04-01T20:05:36;101138.56;;;5.71;100.00
27334;BME280;14817;57.104;-2.094;2023-04-01T20:11:11;101152.16;;;5.66;100.00
27334;BME280;14817;57.104;-2.094;2023-04-01T20:14:06;101157.38;;;5.68;100.00
27334;BME280;14817;57.104;-2.094;2023-04-01T20:16:53;101155.47;;;5.70;100.00
27334;BME280;14817;57.104;-2.094;2023-04-01T20:19:52;101165.13;;;5.71;100.00
27334;BME280;14817;57.104;-2.094;2023-04-01T20:25:01;101169.94;;;5.66;100.00
27334;BME280;14817;57.104;-2.094;2023-04-01T20:27:35;101177.34;;;5.61;100.00
27334;BME280;14817;57.104;-2.094;2023-04-01T20:35:57;101183.97;;;5.68;100.00
27334;BME280;14817;57.104;-2.094;2023-04-01T20:41:40;101185.66;;;5.69;100.00
27334;BME280;14817;57.104;-2.094;2023-04-01T20:44:14;101195.19;;;5.59;100.00
27334;BME280;14817;57.104;-2.094;2023-04-01T20:47:06;101205.38;;;5.52;100.00
27334;BME280;14817;57.104;-2.094;2023-04-01T20:49:41;101210.06;;;5.48;100.00
27334;BME280;14817;57.104;-2.094;2023-04-01T20:52:22;101207.59;;;5.45;100.00
27334;BME280;14817;57.104;-2.094;2023-04-01T20:55:16;101218.97;;;5.47;100.00
27334;BME280;14817;57.104;-2.094;2023-04-01T20:58:01;101220.88;;;5.45;100.00
27334;BME280;14817;57.104;-2.094;2023-04-01T21:00:41;101215.56;;;5.45;100.00
27334;BME280;14817;57.104;-2.094;2023-04-01T21:11:44;101232.25;;;5.47;100.00
27334;BME280;14817;57.104;-2.094;2023-04-01T21:16:55;101237.56;;;5.47;100.00
27334;BME280;14817;57.104;-2.094;2023-04-01T21:52:45;101267.19;;;5.41;100.00
27334;BME280;14817;57.104;-2.094;2023-04-01T22:03:57;101276.84;;;5.29;100.00
27334;BME280;14817;57.104;-2.094;2023-04-01T22:06:49;101283.06;;;5.28;100.00
27334;BME280;14817;57.104;-2.094;2023-04-01T22:09:36;101278.75;;;5.27;100.00
27334;BME280;14817;57.104;-2.094;2023-04-01T22:13:10;101285.19;;;5.23;100.00
27334;BME280;14817;57.104;-2.094;2023-04-01T22:15:31;101288.69;;;5.24;100.00
27334;BME280;14817;57.104;-2.094;2023-04-01T22:18:13;101294.97;;;5.23;100.00
27334;BME280;14817;57.104;-2.094;2023-04-01T22:23:32;101293.06;;;5.25;100.00
27334;BME280;14817;57.104;-2.094;2023-04-01T22:31:21;101299.53;;;5.21;100.00
27334;BME280;14817;57.104;-2.094;2023-04-01T22:34:19;101312.59;;;5.24;100.00
27334;BME280;14817;57.104;-2.094;2023-04-01T22:37:10;101311.16;;;5.18;100.00
27334;BME280;14817;57.104;-2.094;2023-04-01T22:43:05;101314.88;;;5.16;100.00
27334;BME280;14817;57.104;-2.094;2023-04-01T22:50:55;101324.34;;;5.20;100.00
27334;BME280;14817;57.104;-2.094;2023-04-01T22:56:21;101332.72;;;5.14;100.00
27334;BME280;14817;57.104;-2.094;2023-04-01T23:01:44;101339.63;;;5.16;100.00
27334;BME280;14817;57.104;-2.094;2023-04-01T23:04:16;101348.47;;;5.17;100.00
27334;BME280;14817;57.104;-2.094;2023-04-01T23:06:51;101344.00;;;5.17;100.00
27334;BME280;14817;57.104;-2.094;2023-04-01T23:09:33;101350.16;;;5.18;100.00
27334;BME280;14817;57.104;-2.094;2023-04-01T23:12:04;101350.16;;;5.18;100.00
27334;BME280;14817;57.104;-2.094;2023-04-01T23:28:17;101365.41;;;5.14;100.00
27334;BME280;14817;57.104;-2.094;2023-04-01T23:30:47;101369.13;;;5.11;100.00
27334;BME280;14817;57.104;-2.094;2023-04-01T23:33:22;101370.94;;;5.11;100.00
27334;BME280;14817;57.104;-2.094;2023-04-01T23:35:56;101375.47;;;5.09;100.00
27334;BME280;14817;57.104;-2.094;2023-04-01T23:38:37;101378.22;;;5.07;100.00
27334;BME280;14817;57.104;-2.094;2023-04-01T23:41:06;101384.22;;;5.11;100.00
27334;BME280;14817;57.104;-2.094;2023-04-01T23:43:38;101387.72;;;5.11;100.00
27334;BME280;14817;57.104;-2.094;2023-04-01T23:46:07;101388.75;;;5.09;100.00
27334;BME280;14817;57.104;-2.094;2023-04-01T23:48:40;101392.19;;;5.11;100.00
27334;BME280;14817;57.104;-2.094;2023-04-01T23:51:14;101396.53;;;5.12;100.00
27334;BME280;14817;57.104;-2.094;2023-04-01T23:53:46;101403.63;;;5.11;100.00
27334;BME280;14817;57.104;-2.094;2023-04-01T23:56:17;101400.06;;;5.13;100.00